sensor_id;sensor_type;location;lat;lon;timestamp;temperature;humidity
78366;HTU21D;67641;59.864;30.464;2024-01-06T00:00:23;14.41;72.47
78366;HTU21D;67641;59.864;30.464;2024-01-06T00:02:49;14.41;72.71
78366;HTU21D;67641;59.864;30.464;2024-01-06T00:05:15;14.40;72.80
78366;HTU21D;67641;59.864;30.464;2024-01-06T00:07:41;14.40;72.81
78366;HTU21D;67641;59.864;30.464;2024-01-06T00:10:07;14.40;72.65
78366;HTU21D;67641;59.864;30.464;2024-01-06T00:12:34;14.39;72.70
78366;HTU21D;67641;59.864;30.464;2024-01-06T00:15:01;14.38;72.34
78366;HTU21D;67641;59.864;30.464;2024-01-06T00:17:27;14.38;72.33
78366;HTU21D;67641;59.864;30.464;2024-01-06T00:19:53;14.38;72.41
78366;HTU21D;67641;59.864;30.464;2024-01-06T00:22:20;14.36;72.29
78366;HTU21D;67641;59.864;30.464;2024-01-06T00:24:46;14.35;73.09
78366;HTU21D;67641;59.864;30.464;2024-01-06T00:27:14;14.30;73.12
78366;HTU21D;67641;59.864;30.464;2024-01-06T00:29:41;14.29;73.77
78366;HTU21D;67641;59.864;30.464;2024-01-06T00:32:08;14.29;73.52
78366;HTU21D;67641;59.864;30.464;2024-01-06T00:34:34;14.32;73.64
78366;HTU21D;67641;59.864;30.464;2024-01-06T00:37:00;14.30;73.70
78366;HTU21D;67641;59.864;30.464;2024-01-06T00:39:27;14.30;74.26
78366;HTU21D;67641;59.864;30.464;2024-01-06T00:41:54;14.32;74.37
78366;HTU21D;67641;59.864;30.464;2024-01-06T00:44:20;14.33;74.42
78366;HTU21D;67641;59.864;30.464;2024-01-06T00:46:47;14.29;74.49
78366;HTU21D;67641;59.864;30.464;2024-01-06T00:49:13;14.27;74.67
78366;HTU21D;67641;59.864;30.464;2024-01-06T00:51:40;14.27;75.27
78366;HTU21D;67641;59.864;30.464;2024-01-06T00:54:06;14.26;75.89
78366;HTU21D;67641;59.864;30.464;2024-01-06T00:56:33;14.26;75.83
78366;HTU21D;67641;59.864;30.464;2024-01-06T00:58:59;14.27;76.10
78366;HTU21D;67641;59.864;30.464;2024-01-06T01:01:25;14.26;76.24
78366;HTU21D;67641;59.864;30.464;2024-01-06T01:03:52;14.26;76.10
78366;HTU21D;67641;59.864;30.464;2024-01-06T01:06:18;14.27;76.21
78366;HTU21D;67641;59.864;30.464;2024-01-06T01:08:45;14.27;75.99
78366;HTU21D;67641;59.864;30.464;2024-01-06T01:11:11;14.24;76.04
78366;HTU21D;67641;59.864;30.464;2024-01-06T01:13:38;14.24;76.06
78366;HTU21D;67641;59.864;30.464;2024-01-06T01:16:04;14.21;76.05
78366;HTU21D;67641;59.864;30.464;2024-01-06T01:18:31;14.18;76.03
78366;HTU21D;67641;59.864;30.464;2024-01-06T01:20:57;14.15;76.06
78366;HTU21D;67641;59.864;30.464;2024-01-06T01:23:23;14.15;76.23
78366;HTU21D;67641;59.864;30.464;2024-01-06T01:25:50;14.13;76.50
78366;HTU21D;67641;59.864;30.464;2024-01-06T01:28:16;14.13;76.65
78366;HTU21D;67641;59.864;30.464;2024-01-06T01:30:43;14.14;76.92
78366;HTU21D;67641;59.864;30.464;2024-01-06T01:33:09;14.11;77.21
78366;HTU21D;67641;59.864;30.464;2024-01-06T01:35:36;14.12;77.50
78366;HTU21D;67641;59.864;30.464;2024-01-06T01:38:02;14.09;77.76
78366;HTU21D;67641;59.864;30.464;2024-01-06T01:40:29;14.10;77.89
78366;HTU21D;67641;59.864;30.464;2024-01-06T01:42:55;14.08;78.23
78366;HTU21D;67641;59.864;30.464;2024-01-06T01:45:21;14.05;78.32
78366;HTU21D;67641;59.864;30.464;2024-01-06T01:47:48;14.03;79.19
78366;HTU21D;67641;59.864;30.464;2024-01-06T01:50:14;14.03;79.35
78366;HTU21D;67641;59.864;30.464;2024-01-06T01:52:41;14.00;79.18
78366;HTU21D;67641;59.864;30.464;2024-01-06T01:55:08;13.99;79.54
78366;HTU21D;67641;59.864;30.464;2024-01-06T01:57:35;13.99;79.56
78366;HTU21D;67641;59.864;30.464;2024-01-06T02:00:01;13.98;79.85
78366;HTU21D;67641;59.864;30.464;2024-01-06T02:02:29;13.99;80.07
78366;HTU21D;67641;59.864;30.464;2024-01-06T02:04:56;13.96;80.18
78366;HTU21D;67641;59.864;30.464;2024-01-06T02:07:22;13.96;80.91
78366;HTU21D;67641;59.864;30.464;2024-01-06T02:09:48;13.95;80.75
78366;HTU21D;67641;59.864;30.464;2024-01-06T02:12:15;13.95;80.81
78366;HTU21D;67641;59.864;30.464;2024-01-06T02:14:41;13.94;81.16
78366;HTU21D;67641;59.864;30.464;2024-01-06T02:17:09;13.93;81.56
78366;HTU21D;67641;59.864;30.464;2024-01-06T02:19:35;13.95;82.00
78366;HTU21D;67641;59.864;30.464;2024-01-06T02:22:02;13.94;82.21
78366;HTU21D;67641;59.864;30.464;2024-01-06T02:24:28;13.92;82.03
78366;HTU21D;67641;59.864;30.464;2024-01-06T02:26:54;13.92;82.57
78366;HTU21D;67641;59.864;30.464;2024-01-06T02:29:21;13.90;82.86
78366;HTU21D;67641;59.864;30.464;2024-01-06T02:31:47;13.92;83.07
78366;HTU21D;67641;59.864;30.464;2024-01-06T02:34:13;13.91;83.40
78366;HTU21D;67641;59.864;30.464;2024-01-06T02:36:40;13.92;83.40
78366;HTU21D;67641;59.864;30.464;2024-01-06T02:39:06;13.92;83.60
78366;HTU21D;67641;59.864;30.464;2024-01-06T02:41:32;13.93;83.74
78366;HTU21D;67641;59.864;30.464;2024-01-06T02:43:58;13.93;83.90
78366;HTU21D;67641;59.864;30.464;2024-01-06T02:46:24;13.95;84.52
78366;HTU21D;67641;59.864;30.464;2024-01-06T02:48:50;13.95;84.61
78366;HTU21D;67641;59.864;30.464;2024-01-06T02:51:16;13.96;84.75
78366;HTU21D;67641;59.864;30.464;2024-01-06T02:53:42;13.97;85.07
78366;HTU21D;67641;59.864;30.464;2024-01-06T02:56:12;13.98;84.84
78366;HTU21D;67641;59.864;30.464;2024-01-06T02:58:38;13.97;85.02
78366;HTU21D;67641;59.864;30.464;2024-01-06T03:01:05;13.98;85.00
78366;HTU21D;67641;59.864;30.464;2024-01-06T03:03:31;13.98;84.93
78366;HTU21D;67641;59.864;30.464;2024-01-06T03:05:57;13.96;85.07
78366;HTU21D;67641;59.864;30.464;2024-01-06T03:08:23;13.96;85.25
78366;HTU21D;67641;59.864;30.464;2024-01-06T03:10:49;13.94;85.89
78366;HTU21D;67641;59.864;30.464;2024-01-06T03:13:15;13.94;85.69
78366;HTU21D;67641;59.864;30.464;2024-01-06T03:15:41;13.95;85.64
78366;HTU21D;67641;59.864;30.464;2024-01-06T03:18:08;13.94;85.99
78366;HTU21D;67641;59.864;30.464;2024-01-06T03:20:34;13.94;86.01
78366;HTU21D;67641;59.864;30.464;2024-01-06T03:23:00;13.93;86.03
78366;HTU21D;67641;59.864;30.464;2024-01-06T03:25:27;13.93;86.32
78366;HTU21D;67641;59.864;30.464;2024-01-06T03:27:53;13.93;86.31
78366;HTU21D;67641;59.864;30.464;2024-01-06T03:30:19;13.94;86.30
78366;HTU21D;67641;59.864;30.464;2024-01-06T03:32:45;13.93;86.38
78366;HTU21D;67641;59.864;30.464;2024-01-06T03:35:12;13.90;86.16
78366;HTU21D;67641;59.864;30.464;2024-01-06T03:37:38;13.89;86.04
78366;HTU21D;67641;59.864;30.464;2024-01-06T03:40:05;13.85;86.28
78366;HTU21D;67641;59.864;30.464;2024-01-06T03:42:32;13.88;86.09
78366;HTU21D;67641;59.864;30.464;2024-01-06T03:44:58;13.86;86.17
78366;HTU21D;67641;59.864;30.464;2024-01-06T03:47:25;13.86;86.12
78366;HTU21D;67641;59.864;30.464;2024-01-06T03:49:51;13.86;86.06
78366;HTU21D;67641;59.864;30.464;2024-01-06T03:52:18;13.85;85.85
78366;HTU21D;67641;59.864;30.464;2024-01-06T03:54:44;13.82;85.85
78366;HTU21D;67641;59.864;30.464;2024-01-06T03:57:10;13.83;85.77
78366;HTU21D;67641;59.864;30.464;2024-01-06T03:59:37;13.80;85.03
78366;HTU21D;67641;59.864;30.464;2024-01-06T04:02:03;13.80;84.83
78366;HTU21D;67641;59.864;30.464;2024-01-06T04:04:30;13.76;84.74
78366;HTU21D;67641;59.864;30.464;2024-01-06T04:06:56;13.78;84.79
78366;HTU21D;67641;59.864;30.464;2024-01-06T04:09:23;13.76;84.59
78366;HTU21D;67641;59.864;30.464;2024-01-06T04:11:49;13.77;84.72
78366;HTU21D;67641;59.864;30.464;2024-01-06T04:14:15;13.74;84.76
78366;HTU21D;67641;59.864;30.464;2024-01-06T04:16:42;13.74;84.75
78366;HTU21D;67641;59.864;30.464;2024-01-06T04:19:09;13.74;84.71
78366;HTU21D;67641;59.864;30.464;2024-01-06T04:21:38;13.74;84.68
78366;HTU21D;67641;59.864;30.464;2024-01-06T04:24:04;13.73;84.67
78366;HTU21D;67641;59.864;30.464;2024-01-06T04:26:31;13.71;84.80
78366;HTU21D;67641;59.864;30.464;2024-01-06T04:28:58;13.71;84.82
78366;HTU21D;67641;59.864;30.464;2024-01-06T04:31:24;13.68;84.80
78366;HTU21D;67641;59.864;30.464;2024-01-06T04:33:51;13.69;84.77
78366;HTU21D;67641;59.864;30.464;2024-01-06T04:36:17;13.66;84.90
78366;HTU21D;67641;59.864;30.464;2024-01-06T04:38:43;13.67;84.78
78366;HTU21D;67641;59.864;30.464;2024-01-06T04:41:10;13.66;84.78
78366;HTU21D;67641;59.864;30.464;2024-01-06T04:43:36;13.64;84.73
78366;HTU21D;67641;59.864;30.464;2024-01-06T04:46:02;13.63;84.77
78366;HTU21D;67641;59.864;30.464;2024-01-06T04:48:29;13.62;84.71
78366;HTU21D;67641;59.864;30.464;2024-01-06T04:50:55;13.61;84.76
78366;HTU21D;67641;59.864;30.464;2024-01-06T04:53:22;13.60;84.73
78366;HTU21D;67641;59.864;30.464;2024-01-06T04:55:48;13.62;84.67
78366;HTU21D;67641;59.864;30.464;2024-01-06T04:58:15;13.62;84.77
78366;HTU21D;67641;59.864;30.464;2024-01-06T05:00:41;13.61;84.90
78366;HTU21D;67641;59.864;30.464;2024-01-06T05:03:07;13.62;84.79
78366;HTU21D;67641;59.864;30.464;2024-01-06T05:05:34;13.63;84.79
78366;HTU21D;67641;59.864;30.464;2024-01-06T05:08:00;13.64;84.82
78366;HTU21D;67641;59.864;30.464;2024-01-06T05:10:27;13.66;84.88
78366;HTU21D;67641;59.864;30.464;2024-01-06T05:12:54;13.70;84.87
78366;HTU21D;67641;59.864;30.464;2024-01-06T05:15:20;13.73;84.62
78366;HTU21D;67641;59.864;30.464;2024-01-06T05:17:46;13.77;84.74
78366;HTU21D;67641;59.864;30.464;2024-01-06T05:20:13;13.82;84.57
78366;HTU21D;67641;59.864;30.464;2024-01-06T05:22:39;13.86;84.29
78366;HTU21D;67641;59.864;30.464;2024-01-06T05:25:06;13.94;84.03
78366;HTU21D;67641;59.864;30.464;2024-01-06T05:27:32;13.98;83.68
78366;HTU21D;67641;59.864;30.464;2024-01-06T05:29:59;14.07;83.68
78366;HTU21D;67641;59.864;30.464;2024-01-06T05:32:25;14.13;83.23
78366;HTU21D;67641;59.864;30.464;2024-01-06T05:34:52;14.21;82.97
78366;HTU21D;67641;59.864;30.464;2024-01-06T05:37:18;14.30;82.28
78366;HTU21D;67641;59.864;30.464;2024-01-06T05:39:44;14.41;81.47
78366;HTU21D;67641;59.864;30.464;2024-01-06T05:42:11;14.56;81.08
78366;HTU21D;67641;59.864;30.464;2024-01-06T05:44:39;14.81;79.27
78366;HTU21D;67641;59.864;30.464;2024-01-06T05:47:05;15.33;77.13
78366;HTU21D;67641;59.864;30.464;2024-01-06T05:49:32;16.07;75.19
78366;HTU21D;67641;59.864;30.464;2024-01-06T05:51:58;16.87;71.40
78366;HTU21D;67641;59.864;30.464;2024-01-06T05:54:25;17.58;68.48
78366;HTU21D;67641;59.864;30.464;2024-01-06T05:56:51;18.30;66.11
78366;HTU21D;67641;59.864;30.464;2024-01-06T05:59:18;18.98;62.92
78366;HTU21D;67641;59.864;30.464;2024-01-06T06:01:44;19.62;60.88
78366;HTU21D;67641;59.864;30.464;2024-01-06T06:04:11;20.24;58.03
78366;HTU21D;67641;59.864;30.464;2024-01-06T06:06:38;20.93;55.07
78366;HTU21D;67641;59.864;30.464;2024-01-06T06:09:04;21.61;52.49
78366;HTU21D;67641;59.864;30.464;2024-01-06T06:11:33;22.21;50.35
78366;HTU21D;67641;59.864;30.464;2024-01-06T06:14:00;22.84;49.69
78366;HTU21D;67641;59.864;30.464;2024-01-06T06:16:29;23.38;47.95
78366;HTU21D;67641;59.864;30.464;2024-01-06T06:18:55;23.90;47.42
78366;HTU21D;67641;59.864;30.464;2024-01-06T06:21:22;24.43;46.50
78366;HTU21D;67641;59.864;30.464;2024-01-06T06:23:49;24.88;44.90
78366;HTU21D;67641;59.864;30.464;2024-01-06T06:26:16;25.24;42.91
78366;HTU21D;67641;59.864;30.464;2024-01-06T06:28:42;25.69;41.94
78366;HTU21D;67641;59.864;30.464;2024-01-06T06:31:09;26.17;40.81
78366;HTU21D;67641;59.864;30.464;2024-01-06T06:33:35;26.48;39.92
78366;HTU21D;67641;59.864;30.464;2024-01-06T06:36:02;26.85;39.06
78366;HTU21D;67641;59.864;30.464;2024-01-06T06:38:29;27.20;37.83
78366;HTU21D;67641;59.864;30.464;2024-01-06T06:40:55;27.53;37.46
78366;HTU21D;67641;59.864;30.464;2024-01-06T06:43:22;27.93;36.72
78366;HTU21D;67641;59.864;30.464;2024-01-06T06:45:49;28.15;36.79
78366;HTU21D;67641;59.864;30.464;2024-01-06T06:48:15;28.49;36.24
78366;HTU21D;67641;59.864;30.464;2024-01-06T06:50:42;28.74;35.86
78366;HTU21D;67641;59.864;30.464;2024-01-06T06:53:10;29.05;35.16
78366;HTU21D;67641;59.864;30.464;2024-01-06T06:55:36;29.31;33.99
78366;HTU21D;67641;59.864;30.464;2024-01-06T06:58:04;29.52;32.94
78366;HTU21D;67641;59.864;30.464;2024-01-06T07:00:31;29.81;32.53
78366;HTU21D;67641;59.864;30.464;2024-01-06T07:02:58;30.11;31.99
78366;HTU21D;67641;59.864;30.464;2024-01-06T07:05:25;30.07;31.99
78366;HTU21D;67641;59.864;30.464;2024-01-06T07:07:51;30.21;32.05
78366;HTU21D;67641;59.864;30.464;2024-01-06T07:10:18;30.37;31.62
78366;HTU21D;67641;59.864;30.464;2024-01-06T07:12:44;30.59;31.17
78366;HTU21D;67641;59.864;30.464;2024-01-06T07:15:11;30.63;31.14
78366;HTU21D;67641;59.864;30.464;2024-01-06T07:17:38;30.52;31.21
78366;HTU21D;67641;59.864;30.464;2024-01-06T07:20:07;30.50;30.84
78366;HTU21D;67641;59.864;30.464;2024-01-06T07:22:34;30.33;31.50
78366;HTU21D;67641;59.864;30.464;2024-01-06T07:25:01;30.38;31.50
78366;HTU21D;67641;59.864;30.464;2024-01-06T07:27:27;30.65;31.68
78366;HTU21D;67641;59.864;30.464;2024-01-06T07:29:54;30.49;31.63
78366;HTU21D;67641;59.864;30.464;2024-01-06T07:32:24;29.94;32.95
78366;HTU21D;67641;59.864;30.464;2024-01-06T07:34:51;29.65;33.33
78366;HTU21D;67641;59.864;30.464;2024-01-06T07:37:17;29.19;34.54
78366;HTU21D;67641;59.864;30.464;2024-01-06T07:39:43;28.84;35.41
78366;HTU21D;67641;59.864;30.464;2024-01-06T07:42:09;28.72;35.81
78366;HTU21D;67641;59.864;30.464;2024-01-06T07:44:35;28.23;36.92
78366;HTU21D;67641;59.864;30.464;2024-01-06T07:47:01;28.44;36.76
78366;HTU21D;67641;59.864;30.464;2024-01-06T07:49:30;28.45;37.08
78366;HTU21D;67641;59.864;30.464;2024-01-06T07:51:57;28.69;36.79
78366;HTU21D;67641;59.864;30.464;2024-01-06T07:54:23;28.69;36.96
78366;HTU21D;67641;59.864;30.464;2024-01-06T07:56:49;28.74;37.25
78366;HTU21D;67641;59.864;30.464;2024-01-06T07:59:15;28.41;38.09
78366;HTU21D;67641;59.864;30.464;2024-01-06T08:01:41;28.31;38.85
78366;HTU21D;67641;59.864;30.464;2024-01-06T08:04:11;27.98;39.56
78366;HTU21D;67641;59.864;30.464;2024-01-06T08:06:37;27.35;41.36
78366;HTU21D;67641;59.864;30.464;2024-01-06T08:09:03;27.53;41.51
78366;HTU21D;67641;59.864;30.464;2024-01-06T08:11:29;27.57;41.89
78366;HTU21D;67641;59.864;30.464;2024-01-06T08:13:56;27.88;41.89
78366;HTU21D;67641;59.864;30.464;2024-01-06T08:16:22;28.09;41.74
78366;HTU21D;67641;59.864;30.464;2024-01-06T08:18:48;27.50;43.19
78366;HTU21D;67641;59.864;30.464;2024-01-06T08:21:15;26.98;44.41
78366;HTU21D;67641;59.864;30.464;2024-01-06T08:23:41;26.87;45.28
78366;HTU21D;67641;59.864;30.464;2024-01-06T08:26:08;26.87;45.41
78366;HTU21D;67641;59.864;30.464;2024-01-06T08:28:34;26.76;45.86
78366;HTU21D;67641;59.864;30.464;2024-01-06T08:31:01;27.04;45.83
78366;HTU21D;67641;59.864;30.464;2024-01-06T08:33:27;27.08;45.39
78366;HTU21D;67641;59.864;30.464;2024-01-06T08:35:53;27.19;45.15
78366;HTU21D;67641;59.864;30.464;2024-01-06T08:38:19;26.66;46.13
78366;HTU21D;67641;59.864;30.464;2024-01-06T08:40:45;25.97;47.79
78366;HTU21D;67641;59.864;30.464;2024-01-06T08:43:14;26.07;47.68
78366;HTU21D;67641;59.864;30.464;2024-01-06T08:45:40;26.35;47.53
78366;HTU21D;67641;59.864;30.464;2024-01-06T08:48:06;25.90;48.78
78366;HTU21D;67641;59.864;30.464;2024-01-06T08:50:32;26.35;48.05
78366;HTU21D;67641;59.864;30.464;2024-01-06T08:52:59;26.32;48.51
78366;HTU21D;67641;59.864;30.464;2024-01-06T08:55:25;26.42;48.08
78366;HTU21D;67641;59.864;30.464;2024-01-06T08:57:51;26.69;46.94
78366;HTU21D;67641;59.864;30.464;2024-01-06T09:00:17;26.85;46.98
78366;HTU21D;67641;59.864;30.464;2024-01-06T09:02:43;26.53;47.73
78366;HTU21D;67641;59.864;30.464;2024-01-06T09:05:10;26.41;48.60
78366;HTU21D;67641;59.864;30.464;2024-01-06T09:07:36;26.37;48.31
78366;HTU21D;67641;59.864;30.464;2024-01-06T09:10:02;26.13;49.62
78366;HTU21D;67641;59.864;30.464;2024-01-06T09:12:28;26.28;49.18
78366;HTU21D;67641;59.864;30.464;2024-01-06T09:14:55;26.28;49.33
78366;HTU21D;67641;59.864;30.464;2024-01-06T09:17:21;26.83;48.26
78366;HTU21D;67641;59.864;30.464;2024-01-06T09:19:48;26.83;48.35
78366;HTU21D;67641;59.864;30.464;2024-01-06T09:22:14;27.24;47.42
78366;HTU21D;67641;59.864;30.464;2024-01-06T09:24:40;27.76;46.18
78366;HTU21D;67641;59.864;30.464;2024-01-06T09:27:06;27.83;45.84
78366;HTU21D;67641;59.864;30.464;2024-01-06T09:29:34;27.31;46.92
78366;HTU21D;67641;59.864;30.464;2024-01-06T09:32:00;27.28;47.22
78366;HTU21D;67641;59.864;30.464;2024-01-06T09:34:27;27.69;46.31
78366;HTU21D;67641;59.864;30.464;2024-01-06T09:36:53;28.09;45.44
78366;HTU21D;67641;59.864;30.464;2024-01-06T09:39:20;28.42;44.50
78366;HTU21D;67641;59.864;30.464;2024-01-06T09:41:47;28.08;44.94
78366;HTU21D;67641;59.864;30.464;2024-01-06T09:44:13;28.08;45.72
78366;HTU21D;67641;59.864;30.464;2024-01-06T09:46:39;27.82;45.76
78366;HTU21D;67641;59.864;30.464;2024-01-06T09:49:08;28.13;45.46
78366;HTU21D;67641;59.864;30.464;2024-01-06T09:51:36;28.44;44.87
78366;HTU21D;67641;59.864;30.464;2024-01-06T09:54:04;28.93;43.73
78366;HTU21D;67641;59.864;30.464;2024-01-06T09:56:34;28.59;44.06
78366;HTU21D;67641;59.864;30.464;2024-01-06T09:59:01;28.32;44.92
78366;HTU21D;67641;59.864;30.464;2024-01-06T10:01:28;28.70;44.08
78366;HTU21D;67641;59.864;30.464;2024-01-06T10:03:54;29.21;42.97
78366;HTU21D;67641;59.864;30.464;2024-01-06T10:06:21;28.91;43.84
78366;HTU21D;67641;59.864;30.464;2024-01-06T10:08:51;29.00;43.42
78366;HTU21D;67641;59.864;30.464;2024-01-06T10:11:19;29.15;42.92
78366;HTU21D;67641;59.864;30.464;2024-01-06T10:13:51;29.54;42.12
78366;HTU21D;67641;59.864;30.464;2024-01-06T10:16:18;29.44;42.35
78366;HTU21D;67641;59.864;30.464;2024-01-06T10:18:45;29.16;43.03
78366;HTU21D;67641;59.864;30.464;2024-01-06T10:21:12;29.38;42.10
78366;HTU21D;67641;59.864;30.464;2024-01-06T10:23:39;29.15;42.79
78366;HTU21D;67641;59.864;30.464;2024-01-06T10:26:12;28.26;44.45
78366;HTU21D;67641;59.864;30.464;2024-01-06T10:28:39;29.00;43.61
78366;HTU21D;67641;59.864;30.464;2024-01-06T10:31:08;29.28;42.87
78366;HTU21D;67641;59.864;30.464;2024-01-06T10:33:35;29.72;41.75
78366;HTU21D;67641;59.864;30.464;2024-01-06T10:36:01;29.82;40.81
78366;HTU21D;67641;59.864;30.464;2024-01-06T10:38:29;29.72;41.41
78366;HTU21D;67641;59.864;30.464;2024-01-06T10:41:02;30.24;40.34
78366;HTU21D;67641;59.864;30.464;2024-01-06T10:43:33;29.50;41.90
78366;HTU21D;67641;59.864;30.464;2024-01-06T10:46:06;29.08;43.15
78366;HTU21D;67641;59.864;30.464;2024-01-06T10:48:37;29.03;43.32
78366;HTU21D;67641;59.864;30.464;2024-01-06T10:51:11;29.37;42.21
78366;HTU21D;67641;59.864;30.464;2024-01-06T10:53:37;29.52;42.03
78366;HTU21D;67641;59.864;30.464;2024-01-06T10:56:06;29.41;42.25
78366;HTU21D;67641;59.864;30.464;2024-01-06T10:58:48;29.71;41.68
78366;HTU21D;67641;59.864;30.464;2024-01-06T11:01:21;29.04;43.30
78366;HTU21D;67641;59.864;30.464;2024-01-06T11:03:48;29.44;42.65
78366;HTU21D;67641;59.864;30.464;2024-01-06T11:06:16;29.22;43.12
78366;HTU21D;67641;59.864;30.464;2024-01-06T11:09:21;28.76;43.91
78366;HTU21D;67641;59.864;30.464;2024-01-06T11:11:48;28.16;46.09
78366;HTU21D;67641;59.864;30.464;2024-01-06T11:14:19;28.55;44.76
78366;HTU21D;67641;59.864;30.464;2024-01-06T11:16:46;28.16;46.22
78366;HTU21D;67641;59.864;30.464;2024-01-06T11:24:49;28.30;46.22
78366;HTU21D;67641;59.864;30.464;2024-01-06T11:27:24;28.19;45.81
78366;HTU21D;67641;59.864;30.464;2024-01-06T11:29:55;28.32;45.82
78366;HTU21D;67641;59.864;30.464;2024-01-06T11:32:33;27.43;47.78
78366;HTU21D;67641;59.864;30.464;2024-01-06T11:35:07;27.46;48.22
78366;HTU21D;67641;59.864;30.464;2024-01-06T11:37:50;28.28;45.90
78366;HTU21D;67641;59.864;30.464;2024-01-06T11:43:01;28.03;45.51
78366;HTU21D;67641;59.864;30.464;2024-01-06T11:45:28;27.88;46.38
78366;HTU21D;67641;59.864;30.464;2024-01-06T11:47:59;27.68;46.87
78366;HTU21D;67641;59.864;30.464;2024-01-06T11:50:26;28.04;46.22
78366;HTU21D;67641;59.864;30.464;2024-01-06T11:52:53;28.19;45.73
78366;HTU21D;67641;59.864;30.464;2024-01-06T11:55:20;28.85;43.43
78366;HTU21D;67641;59.864;30.464;2024-01-06T11:57:46;28.73;43.58
78366;HTU21D;67641;59.864;30.464;2024-01-06T12:00:13;28.39;45.06
78366;HTU21D;67641;59.864;30.464;2024-01-06T12:02:40;28.21;45.18
78366;HTU21D;67641;59.864;30.464;2024-01-06T12:05:12;27.79;46.57
78366;HTU21D;67641;59.864;30.464;2024-01-06T12:07:40;27.07;47.11
78366;HTU21D;67641;59.864;30.464;2024-01-06T12:10:08;26.02;49.28
78366;HTU21D;67641;59.864;30.464;2024-01-06T12:12:34;25.15;51.65
78366;HTU21D;67641;59.864;30.464;2024-01-06T12:15:00;24.71;53.03
78366;HTU21D;67641;59.864;30.464;2024-01-06T12:17:31;24.55;53.49
78366;HTU21D;67641;59.864;30.464;2024-01-06T12:19:57;23.96;54.75
78366;HTU21D;67641;59.864;30.464;2024-01-06T12:22:23;23.49;56.54
78366;HTU21D;67641;59.864;30.464;2024-01-06T12:24:50;23.79;55.39
78366;HTU21D;67641;59.864;30.464;2024-01-06T12:27:17;23.68;55.66
78366;HTU21D;67641;59.864;30.464;2024-01-06T12:29:44;23.66;55.38
78366;HTU21D;67641;59.864;30.464;2024-01-06T12:32:11;24.54;52.90
78366;HTU21D;67641;59.864;30.464;2024-01-06T12:34:40;25.02;51.67
78366;HTU21D;67641;59.864;30.464;2024-01-06T12:37:07;25.37;50.43
78366;HTU21D;67641;59.864;30.464;2024-01-06T12:39:34;25.87;48.63
78366;HTU21D;67641;59.864;30.464;2024-01-06T12:42:01;25.89;48.23
78366;HTU21D;67641;59.864;30.464;2024-01-06T12:44:27;25.65;49.21
78366;HTU21D;67641;59.864;30.464;2024-01-06T12:46:54;25.75;49.22
78366;HTU21D;67641;59.864;30.464;2024-01-06T12:49:21;26.42;47.04
78366;HTU21D;67641;59.864;30.464;2024-01-06T12:51:47;26.20;47.61
78366;HTU21D;67641;59.864;30.464;2024-01-06T12:54:14;27.06;45.72
78366;HTU21D;67641;59.864;30.464;2024-01-06T12:56:41;27.66;44.09
78366;HTU21D;67641;59.864;30.464;2024-01-06T12:59:07;27.73;43.77
78366;HTU21D;67641;59.864;30.464;2024-01-06T13:01:34;27.83;43.03
78366;HTU21D;67641;59.864;30.464;2024-01-06T13:04:01;28.05;42.74
78366;HTU21D;67641;59.864;30.464;2024-01-06T13:06:27;28.11;42.08
78366;HTU21D;67641;59.864;30.464;2024-01-06T13:08:54;28.31;41.22
78366;HTU21D;67641;59.864;30.464;2024-01-06T13:11:21;27.68;42.49
78366;HTU21D;67641;59.864;30.464;2024-01-06T13:13:48;27.51;43.54
78366;HTU21D;67641;59.864;30.464;2024-01-06T13:16:14;26.94;45.33
78366;HTU21D;67641;59.864;30.464;2024-01-06T13:18:41;26.64;46.28
78366;HTU21D;67641;59.864;30.464;2024-01-06T13:21:07;26.03;47.15
78366;HTU21D;67641;59.864;30.464;2024-01-06T13:23:34;25.64;48.21
78366;HTU21D;67641;59.864;30.464;2024-01-06T13:26:01;25.29;48.79
78366;HTU21D;67641;59.864;30.464;2024-01-06T13:28:27;24.98;49.47
78366;HTU21D;67641;59.864;30.464;2024-01-06T13:30:54;24.83;49.87
78366;HTU21D;67641;59.864;30.464;2024-01-06T13:33:20;24.51;50.78
78366;HTU21D;67641;59.864;30.464;2024-01-06T13:35:47;24.10;52.61
78366;HTU21D;67641;59.864;30.464;2024-01-06T13:38:13;23.87;53.81
78366;HTU21D;67641;59.864;30.464;2024-01-06T13:40:40;23.82;54.58
78366;HTU21D;67641;59.864;30.464;2024-01-06T13:43:06;23.77;55.16
78366;HTU21D;67641;59.864;30.464;2024-01-06T13:45:35;23.60;55.71
78366;HTU21D;67641;59.864;30.464;2024-01-06T13:48:02;23.71;55.47
78366;HTU21D;67641;59.864;30.464;2024-01-06T13:50:29;23.90;54.28
78366;HTU21D;67641;59.864;30.464;2024-01-06T13:52:55;24.15;52.27
78366;HTU21D;67641;59.864;30.464;2024-01-06T13:55:22;23.87;52.62
78366;HTU21D;67641;59.864;30.464;2024-01-06T13:57:49;23.98;52.36
78366;HTU21D;67641;59.864;30.464;2024-01-06T14:00:16;23.81;53.34
78366;HTU21D;67641;59.864;30.464;2024-01-06T14:02:45;23.42;53.71
78366;HTU21D;67641;59.864;30.464;2024-01-06T14:05:13;23.28;54.41
78366;HTU21D;67641;59.864;30.464;2024-01-06T14:07:40;22.99;55.89
78366;HTU21D;67641;59.864;30.464;2024-01-06T14:10:11;22.79;57.29
78366;HTU21D;67641;59.864;30.464;2024-01-06T14:12:39;22.88;57.39
78366;HTU21D;67641;59.864;30.464;2024-01-06T14:15:07;23.12;56.33
78366;HTU21D;67641;59.864;30.464;2024-01-06T14:17:34;23.20;56.51
78366;HTU21D;67641;59.864;30.464;2024-01-06T14:20:01;23.02;56.88
78366;HTU21D;67641;59.864;30.464;2024-01-06T14:22:30;22.98;57.37
78366;HTU21D;67641;59.864;30.464;2024-01-06T14:24:57;22.76;58.00
78366;HTU21D;67641;59.864;30.464;2024-01-06T14:27:23;22.70;58.48
78366;HTU21D;67641;59.864;30.464;2024-01-06T14:29:52;22.56;58.91
78366;HTU21D;67641;59.864;30.464;2024-01-06T14:32:21;22.42;59.77
78366;HTU21D;67641;59.864;30.464;2024-01-06T14:34:49;22.18;59.67
78366;HTU21D;67641;59.864;30.464;2024-01-06T14:37:16;22.05;60.50
78366;HTU21D;67641;59.864;30.464;2024-01-06T14:39:43;21.84;60.96
78366;HTU21D;67641;59.864;30.464;2024-01-06T14:42:09;21.72;61.44
78366;HTU21D;67641;59.864;30.464;2024-01-06T14:44:35;21.64;62.18
78366;HTU21D;67641;59.864;30.464;2024-01-06T14:47:01;21.58;61.00
78366;HTU21D;67641;59.864;30.464;2024-01-06T14:49:27;21.46;60.25
78366;HTU21D;67641;59.864;30.464;2024-01-06T14:51:53;21.32;60.86
78366;HTU21D;67641;59.864;30.464;2024-01-06T14:54:20;21.19;61.29
78366;HTU21D;67641;59.864;30.464;2024-01-06T14:56:47;21.10;61.36
78366;HTU21D;67641;59.864;30.464;2024-01-06T14:59:13;21.05;62.25
78366;HTU21D;67641;59.864;30.464;2024-01-06T15:01:43;21.01;62.37
78366;HTU21D;67641;59.864;30.464;2024-01-06T15:04:10;20.95;63.27
78366;HTU21D;67641;59.864;30.464;2024-01-06T15:06:36;20.91;63.50
78366;HTU21D;67641;59.864;30.464;2024-01-06T15:09:02;20.84;64.03